Time;durP1;ratioP1;P1;durP2;ratioP2;P2;SDS_P1;SDS_P2;PMS_P1;PMS_P2;Temp;Humidity;BMP_temperature;BMP_pressure;BME280_temperature;BME280_humidity;BME280_pressure;Samples;Min_cycle;Max_cycle;Signal;HPM_P1;HPM_P2
2022/02/24 00:01:41;;;;;;;90.90;33.20;;;;;;;-0.73;74.63;99498.36;220285;1273;24238;-69
2022/02/24 00:07:13;;;;;;;87.70;37.20;;;;;;;-0.81;74.53;99496.27;220285;1271;24115;-70
2022/02/24 00:13:17;;;;;;;;;;;;;;;;;;;;;
2022/02/24 00:18:47;;;;;;;88.20;36.50;;;;;;;-0.96;74.68;99485.85;219337;1271;25382;-70
2022/02/24 00:24:35;;;;;;;84.20;35.10;;;;;;;-1.04;74.86;99479.59;219977;1271;22721;-70
2022/02/24 00:29:46;;;;;;;79.80;32.10;;;;;;;-1.05;74.90;99472.98;219685;1271;22707;-69
2022/02/24 00:35:31;;;;;;;87.80;34.60;;;;;;;-1.05;75.04;99475.07;220412;1271;22566;-70
2022/02/24 00:41:06;;;;;;;;;;;;;;;;;;;;;
2022/02/24 00:46:18;;;;;;;83.60;32.80;;;;;;;-1.08;75.16;99464.92;219721;1271;25331;-69
2022/02/24 00:51:24;;;;;;;81.60;32.10;;;;;;;-1.10;75.11;99466.56;219743;1271;24377;-70
2022/02/24 00:56:46;;;;;;;83.30;31.90;;;;;;;-1.13;75.16;99471.00;220441;1271;22565;-70
2022/02/24 01:02:16;;;;;;;77.10;31.30;;;;;;;-1.15;75.36;99477.34;219637;1271;24251;-69
2022/02/24 01:07:27;;;;;;;71.80;29.10;;;;;;;-1.17;75.38;99475.84;219809;1271;25550;-68
2022/02/24 01:12:33;;;;;;;63.90;25.90;;;;;;;-1.20;75.75;99475.20;219706;1271;25439;-70
2022/02/24 01:17:44;;;;;;;64.00;26.60;;;;;;;-1.24;75.57;99479.85;219667;1271;25325;-69
2022/02/24 01:22:56;;;;;;;73.40;29.80;;;;;;;-1.26;75.75;99470.16;219799;1271;25500;-71
2022/02/24 01:27:59;;;;;;;73.00;29.90;;;;;;;-1.29;75.54;99468.24;220019;1271;22546;-69
2022/02/24 01:33:17;;;;;;;69.80;30.50;;;;;;;-1.34;75.75;99454.90;219783;1271;23992;-69
2022/02/24 01:38:21;;;;;;;77.70;29.70;;;;;;;-1.37;75.77;99450.52;219564;1271;25365;-70
2022/02/24 01:44:03;;;;;;;;;;;;;;;;;;;;;
2022/02/24 01:49:14;;;;;;;72.80;30.40;;;;;;;-1.43;76.17;99434.96;219554;1271;22557;-70
2022/02/24 01:54:46;;;;;;;;;;;;;;;;;;;;;
2022/02/24 02:00:10;;;;;;;67.90;27.50;;;;;;;-1.50;76.05;99430.59;219472;1271;22606;-70
2022/02/24 02:06:10;;;;;;;63.50;25.60;;;;;;;-1.52;76.36;99426.88;219785;1271;24046;-69
2022/02/24 02:11:20;;;;;;;64.30;26.60;;;;;;;-1.54;76.31;99424.39;219358;1271;22679;-70
2022/02/24 02:17:02;;;;;;;65.70;28.00;;;;;;;-1.58;76.61;99426.27;219398;1271;22630;-69
2022/02/24 02:22:23;;;;;;;68.00;26.50;;;;;;;-1.62;76.43;99423.27;220511;1271;24216;-69
2022/02/24 02:27:34;;;;;;;62.30;27.60;;;;;;;-1.66;76.41;99420.64;219583;1270;25177;-69
2022/02/24 02:32:39;;;;;;;66.30;27.50;;;;;;;-1.69;76.53;99418.02;219431;1269;22568;-70
2022/02/24 02:37:52;;;;;;;63.30;27.60;;;;;;;-1.72;76.58;99410.55;219630;1271;22541;-70
2022/02/24 02:42:57;;;;;;;54.50;25.90;;;;;;;-1.74;76.61;99403.24;219749;1271;22757;-70
2022/02/24 02:48:22;;;;;;;57.50;25.20;;;;;;;-1.75;76.78;99394.06;219388;1271;26712;-70
2022/02/24 02:58:57;;;;;;;45.70;21.90;;;;;;;-1.74;76.87;99387.20;219672;1271;22658;-70
2022/02/24 03:04:28;;;;;;;50.50;22.60;;;;;;;-1.73;77.08;99384.02;219658;1271;22731;-70
2022/02/24 03:09:44;;;;;;;41.60;20.10;;;;;;;-1.72;77.09;99374.21;219655;1271;22911;-71
2022/02/24 03:14:55;;;;;;;40.10;19.30;;;;;;;-1.73;77.06;99369.48;219703;1271;22865;-69
2022/02/24 03:20:32;;;;;;;;;;;;;;;;;;;;;
2022/02/24 03:25:44;;;;;;;39.30;17.50;;;;;;;-1.68;77.35;99359.14;219503;1271;26796;-69
2022/02/24 03:30:47;;;;;;;41.50;18.30;;;;;;;-1.65;77.44;99366.20;219754;1271;25357;-70
2022/02/24 03:36:21;;;;;;;37.50;17.30;;;;;;;-1.61;77.33;99361.37;219423;1271;25268;-70
2022/02/24 03:42:52;;;;;;;;;;;;;;;;;;;;;
2022/02/24 03:54:50;;;;;;;31.40;14.70;;;;;;;-1.47;77.46;99343.93;219792;1271;22570;-70
2022/02/24 04:00:15;;;;;;;32.80;14.30;;;;;;;-1.44;77.49;99339.71;219881;1271;24290;-70
2022/02/24 04:05:55;;;;;;;;;;;;;;;;;;;;;
2022/02/24 04:11:35;;;;;;;;;;;;;;;;;;;;;
2022/02/24 04:23:37;;;;;;;28.90;13.40;;;;;;;-1.48;77.58;99338.15;219595;1271;22543;-70
2022/02/24 04:29:47;;;;;;;28.10;14.20;;;;;;;-1.51;77.77;99332.27;219392;1271;25393;-70
2022/02/24 04:35:53;;;;;;;32.60;13.60;;;;;;;-1.52;77.89;99326.98;220052;1273;22561;-70
2022/02/24 04:41:18;;;;;;;35.40;14.30;;;;;;;-1.55;77.89;99317.33;219522;1271;24711;-70
2022/02/24 04:46:20;;;;;;;34.20;14.50;;;;;;;-1.59;77.69;99311.17;219738;1271;22647;-71
2022/02/24 04:51:23;;;;;;;33.00;14.10;;;;;;;-1.65;77.88;99309.70;219497;1271;24339;-68
2022/02/24 04:57:09;;;;;;;;;;;;;;;;;;;;;
2022/02/24 05:03:12;;;;;;;30.70;13.20;;;;;;;-1.77;77.94;99308.95;219336;1271;25499;-69
2022/02/24 05:08:39;;;;;;;30.40;13.70;;;;;;;-1.80;78.32;99314.59;219444;1273;22582;-70
2022/02/24 05:14:12;;;;;;;30.60;15.00;;;;;;;-1.83;78.30;99318.98;219333;1273;26312;-69
2022/02/24 05:19:45;;;;;;;;;;;;;;;;;;;;;
2022/02/24 05:25:30;;;;;;;31.60;15.40;;;;;;;-1.88;78.62;99301.78;219280;1273;22860;-70
2022/02/24 05:31:16;;;;;;;;;;;;;;;;;;;;;
2022/02/24 05:36:31;;;;;;;31.40;15.80;;;;;;;-1.80;79.10;99298.11;219533;1273;24295;-69
2022/02/24 05:41:37;;;;;;;38.90;15.90;;;;;;;-1.77;79.04;99291.92;219353;1273;25542;-69
2022/02/24 05:46:39;;;;;;;41.20;16.00;;;;;;;-1.74;78.90;99298.02;219619;1272;22601;-69
2022/02/24 05:52:05;;;;;;;36.20;14.90;;;;;;;-1.71;78.90;99291.15;219381;1273;22496;-70
2022/02/24 05:57:07;;;;;;;36.30;15.00;;;;;;;-1.68;78.85;99290.60;219547;1273;25449;-70
2022/02/24 06:02:12;;;;;;;33.70;13.70;;;;;;;-1.64;79.06;99284.48;219384;1271;22851;-70
2022/02/24 06:07:18;;;;;;;29.80;14.40;;;;;;;-1.55;79.33;99277.77;219643;1273;22637;-69
2022/02/24 06:12:47;;;;;;;;;;;;;;;;;;;;;
2022/02/24 06:17:56;;;;;;;26.80;12.10;;;;;;;-1.34;79.05;99269.86;219698;1273;22720;-69
2022/02/24 06:23:28;;;;;;;28.40;13.80;;;;;;;-1.22;79.12;99259.85;219548;1273;22872;-70
2022/02/24 06:28:42;;;;;;;28.70;11.90;;;;;;;-1.08;79.16;99250.20;219038;1272;22737;-70
2022/02/24 06:33:50;;;;;;;23.20;10.30;;;;;;;-0.94;79.12;99237.32;219180;1272;22795;-69
2022/02/24 06:38:56;;;;;;;18.80;8.90;;;;;;;-0.78;79.04;99234.02;219104;1271;22624;-70
2022/02/24 06:44:06;;;;;;;20.10;9.30;;;;;;;-0.61;78.77;99233.44;220507;1272;22569;-70
2022/02/24 06:49:47;;;;;;;;;;;;;;;;;;;;;
2022/02/24 06:55:33;;;;;;;27.80;9.90;;;;;;;-0.12;78.62;99233.95;218837;1271;24235;-69
2022/02/24 07:06:13;;;;;;;24.70;9.60;;;;;;;0.51;78.22;99221.57;218619;1271;22581;-70
2022/02/24 07:11:19;;;;;;;22.40;8.50;;;;;;;0.74;78.02;99211.90;219125;1271;22704;-69
2022/02/24 07:16:22;;;;;;;20.20;9.70;;;;;;;0.97;77.63;99203.25;219071;1273;25167;-69
2022/02/24 07:21:46;;;;;;;25.40;9.70;;;;;;;1.21;77.55;99204.33;216589;1271;3419091;-67
2022/02/24 07:27:02;;;;;;;21.50;9.00;;;;;;;1.48;76.95;99206.27;219410;1271;22634;-69
2022/02/24 07:32:05;;;;;;;23.90;9.30;;;;;;;1.72;76.73;99200.91;218870;1271;22940;-69
2022/02/24 07:37:25;;;;;;;16.10;7.40;;;;;;;1.97;76.23;99189.86;219175;1273;24205;-68
2022/02/24 07:42:34;;;;;;;14.00;7.20;;;;;;;2.26;75.54;99188.95;219239;1273;22578;-69
2022/02/24 07:47:41;;;;;;;14.40;6.20;;;;;;;2.52;75.20;99185.54;218981;1271;24720;-69
2022/02/24 07:53:24;;;;;;;15.00;6.70;;;;;;;2.78;74.50;99176.89;219039;1273;24371;-68
2022/02/24 07:59:12;;;;;;;15.30;7.30;;;;;;;3.04;73.86;99167.61;218645;1273;22547;-69
2022/02/24 08:04:37;;;;;;;13.70;6.40;;;;;;;3.28;73.17;99159.31;219172;1273;24262;-69
2022/02/24 08:10:00;;;;;;;15.90;7.10;;;;;;;3.51;72.40;99146.98;218651;1273;22793;-69
2022/02/24 08:15:03;;;;;;;15.80;6.80;;;;;;;3.74;72.06;99148.73;218634;1273;22489;-68
2022/02/24 08:20:08;;;;;;;18.70;7.80;;;;;;;3.97;71.62;99142.45;219237;1273;26443;-69
2022/02/24 08:25:20;;;;;;;17.10;8.10;;;;;;;4.19;71.05;99140.91;218880;1275;22555;-68
2022/02/24 08:30:41;;;;;;;16.90;7.70;;;;;;;4.36;70.30;99134.67;218400;1273;22555;-68
2022/02/24 08:36:09;;;;;;;19.50;8.40;;;;;;;4.52;69.65;99113.40;218945;1271;22557;-68
2022/02/24 08:47:31;;;;;;;17.30;8.20;;;;;;;4.94;68.63;99080.58;218498;1273;22597;-69
2022/02/24 08:52:42;;;;;;;16.10;7.90;;;;;;;5.12;68.13;99071.36;220308;1271;22569;-67
2022/02/24 08:57:58;;;;;;;20.40;7.90;;;;;;;5.30;67.69;99066.66;219259;1271;22649;-68
2022/02/24 09:03:16;;;;;;;17.00;7.00;;;;;;;5.49;67.31;99058.13;218971;1271;22664;-69
2022/02/24 09:08:18;;;;;;;14.20;7.50;;;;;;;5.67;66.81;99046.27;218905;1271;22623;-69
2022/02/24 09:13:23;;;;;;;12.90;6.40;;;;;;;5.86;66.48;99039.67;219063;1273;22711;-70
2022/02/24 09:18:25;;;;;;;11.90;5.80;;;;;;;6.05;65.94;99028.39;220777;1271;22567;-69
2022/02/24 09:23:37;;;;;;;13.10;5.80;;;;;;;6.25;65.30;99018.29;218957;1271;22960;-70
2022/02/24 09:28:59;;;;;;;14.80;5.20;;;;;;;6.50;64.82;99015.45;220736;1273;25417;-70
2022/02/24 09:34:30;;;;;;;12.60;4.50;;;;;;;6.70;63.92;99008.98;220744;1271;25258;-69
2022/02/24 09:39:54;;;;;;;10.70;4.40;;;;;;;6.92;63.34;99004.67;219140;1273;25266;-70
2022/02/24 09:44:56;;;;;;;8.10;3.70;;;;;;;7.10;62.72;98995.71;219254;1273;22586;-70
2022/02/24 09:50:04;;;;;;;11.10;4.10;;;;;;;7.25;61.82;98994.50;219014;1273;22544;-69
2022/02/24 09:55:11;;;;;;;7.80;4.10;;;;;;;7.41;61.16;98985.96;218866;1271;22557;-69
2022/02/24 10:00:15;;;;;;;10.00;4.10;;;;;;;7.62;60.45;98983.73;218514;1271;25356;-69
2022/02/24 10:05:31;;;;;;;10.80;3.80;;;;;;;7.79;59.98;98970.21;218605;1271;25503;-69
2022/02/24 10:10:43;;;;;;;10.00;4.20;;;;;;;7.96;59.43;98965.12;218539;1273;22596;-69
2022/02/24 10:15:54;;;;;;;9.20;3.70;;;;;;;8.10;58.76;98952.10;219105;1271;25319;-68
2022/02/24 10:21:06;;;;;;;8.30;3.60;;;;;;;8.27;58.93;98943.55;218678;1273;22589;-68
2022/02/24 10:26:14;;;;;;;9.20;4.00;;;;;;;8.46;58.54;98938.09;218966;1271;22590;-68
2022/02/24 10:31:40;;;;;;;8.00;3.30;;;;;;;8.61;57.67;98929.42;219012;1271;22559;-69
2022/02/24 10:36:43;;;;;;;6.20;2.90;;;;;;;8.76;56.64;98919.70;218923;1271;24713;-69
2022/02/24 10:41:52;;;;;;;5.70;2.20;;;;;;;8.92;56.08;98908.16;218847;1272;22700;-69
2022/02/24 10:47:13;;;;;;;4.60;2.30;;;;;;;9.14;55.85;98901.16;219047;1271;22548;-69
2022/02/24 10:53:05;;;;;;;6.40;2.40;;;;;;;9.36;55.09;98886.60;220732;1270;25454;-70
2022/02/24 10:58:13;;;;;;;8.40;2.50;;;;;;;9.50;53.48;98887.36;220212;1273;23252;-69
2022/02/24 11:03:40;;;;;;;5.10;2.00;;;;;;;9.61;52.18;98878.02;219491;1273;22560;-70
2022/02/24 11:08:55;;;;;;;;;;;;;;;;;;;;;
2022/02/24 11:14:15;;;;;;;7.70;2.90;;;;;;;9.71;49.97;98857.51;219193;1271;25398;-71
2022/02/24 11:19:28;;;;;;;7.50;3.60;;;;;;;9.85;49.81;98853.27;219159;1271;26424;-69
2022/02/24 11:24:35;;;;;;;6.80;2.60;;;;;;;9.99;50.10;98843.30;219185;1271;25318;-70
2022/02/24 11:30:19;;;;;;;4.30;2.40;;;;;;;10.09;49.21;98832.83;219034;1273;25265;-70
2022/02/24 11:35:23;;;;;;;7.50;2.80;;;;;;;10.20;47.88;98827.35;219308;1273;22574;-70
2022/02/24 11:40:36;;;;;;;7.20;3.10;;;;;;;10.28;47.26;98823.15;219562;1271;22568;-69
2022/02/24 11:45:49;;;;;;;5.60;2.80;;;;;;;10.31;46.64;98815.30;219587;1273;22750;-70
2022/02/24 11:51:08;;;;;;;4.70;2.60;;;;;;;10.41;47.81;98804.92;219082;1273;22713;-70
2022/02/24 11:56:21;;;;;;;4.70;2.70;;;;;;;10.55;46.31;98796.94;219242;1273;22588;-69
2022/02/24 12:01:23;;;;;;;6.50;2.90;;;;;;;10.65;47.15;98782.88;218873;1273;24321;-70
2022/02/24 12:07:11;;;;;;;6.80;3.50;;;;;;;10.82;46.52;98770.05;219008;1271;22832;-69
2022/02/24 12:12:39;;;;;;;5.30;2.60;;;;;;;11.06;46.96;98750.52;219007;1272;22744;-68
2022/02/24 12:18:10;;;;;;;4.50;2.80;;;;;;;11.05;45.19;98740.70;219049;1271;23131;-69
2022/02/24 12:23:23;;;;;;;5.00;2.60;;;;;;;11.07;47.01;98733.71;219100;1271;23128;-69
2022/02/24 12:28:39;;;;;;;8.60;4.00;;;;;;;11.16;47.76;98722.80;218671;1273;25396;-69
2022/02/24 12:33:46;;;;;;;7.00;3.30;;;;;;;11.24;47.72;98713.88;219394;1273;22563;-69
2022/02/24 12:38:51;;;;;;;7.90;3.00;;;;;;;11.28;47.62;98707.52;219337;1273;22890;-70
2022/02/24 12:44:00;;;;;;;6.00;2.90;;;;;;;11.26;47.01;98696.14;219092;1272;24251;-69
2022/02/24 12:49:05;;;;;;;6.30;3.10;;;;;;;11.29;47.73;98692.39;219029;1271;25377;-68
2022/02/24 12:54:20;;;;;;;5.50;3.00;;;;;;;11.50;48.28;98688.48;219274;1271;25420;-69
2022/02/24 12:59:29;;;;;;;4.80;2.90;;;;;;;11.83;47.78;98672.77;219477;1273;24120;-68
2022/02/24 13:04:32;;;;;;;3.00;1.70;;;;;;;12.14;44.75;98659.66;219076;1271;22594;-69
2022/02/24 13:09:45;;;;;;;2.70;1.70;;;;;;;12.27;41.82;98648.59;218898;1271;22592;-69
2022/02/24 13:14:49;;;;;;;3.00;1.50;;;;;;;12.27;41.99;98619.81;219249;1273;23265;-69
2022/02/24 13:19:52;;;;;;;6.60;1.70;;;;;;;12.30;42.70;98607.65;219352;1273;22578;-69
2022/02/24 13:24:57;;;;;;;4.20;2.30;;;;;;;12.30;41.94;98597.88;219244;1273;22882;-69
2022/02/24 13:30:12;;;;;;;4.00;1.90;;;;;;;12.33;43.24;98586.59;219195;1273;25490;-69
2022/02/24 13:35:14;;;;;;;4.40;1.90;;;;;;;12.43;43.36;98580.21;219050;1273;22576;-69
2022/02/24 13:40:27;;;;;;;3.60;1.80;;;;;;;12.54;43.43;98572.64;219081;1273;22622;-69
2022/02/24 13:45:30;;;;;;;3.90;1.70;;;;;;;12.60;42.65;98551.38;218931;1274;22712;-68
2022/02/24 13:50:45;;;;;;;7.40;3.00;;;;;;;12.60;43.30;98547.35;219594;1273;22948;-70
2022/02/24 13:55:53;;;;;;;4.10;2.40;;;;;;;12.61;43.87;98538.42;219081;1274;25476;-70
2022/02/24 14:01:05;;;;;;;4.30;2.70;;;;;;;12.62;43.96;98523.80;221193;1273;22682;-69
2022/02/24 14:06:40;;;;;;;4.10;2.50;;;;;;;12.63;44.24;98506.66;218404;1273;23838;-69
2022/02/24 14:12:19;;;;;;;;;;;;;;;;;;;;;
2022/02/24 14:17:32;;;;;;;4.30;2.70;;;;;;;12.60;44.55;98486.95;226024;1271;24495;-69
2022/02/24 14:22:48;;;;;;;6.00;2.90;;;;;;;12.62;44.06;98481.14;220093;1272;24244;-69
2022/02/24 14:27:51;;;;;;;4.70;2.80;;;;;;;12.55;43.85;98482.30;218976;1271;22550;-69
2022/02/24 14:32:53;;;;;;;4.90;2.70;;;;;;;12.48;44.67;98470.23;218916;1273;26247;-68
2022/02/24 14:37:55;;;;;;;3.90;2.10;;;;;;;12.32;43.86;98459.48;218812;1273;22580;-68
2022/02/24 14:43:04;;;;;;;5.10;2.00;;;;;;;12.11;42.85;98464.10;219247;1272;24385;-68
2022/02/24 14:48:07;;;;;;;4.30;2.20;;;;;;;11.86;42.47;98464.34;219194;1273;22633;-68
2022/02/24 14:53:14;;;;;;;5.50;2.00;;;;;;;11.64;42.39;98463.27;219111;1271;22538;-71
2022/02/24 14:58:18;;;;;;;5.10;2.40;;;;;;;11.46;43.23;98468.07;220503;1272;22615;-70
2022/02/24 15:03:50;;;;;;;4.30;2.40;;;;;;;11.27;43.08;98463.36;220546;1273;22634;-70
2022/02/24 15:08:54;;;;;;;4.50;2.10;;;;;;;11.05;42.99;98464.31;220468;1273;22590;-69
2022/02/24 15:14:02;;;;;;;4.90;2.00;;;;;;;10.80;43.36;98456.84;219240;1274;22547;-69
2022/02/24 15:19:10;;;;;;;4.10;2.30;;;;;;;10.60;43.47;98459.74;219124;1271;22703;-70
2022/02/24 15:24:28;;;;;;;7.90;4.90;;;;;;;10.38;43.66;98463.17;220078;1273;22580;-71
2022/02/24 15:29:34;;;;;;;4.90;2.30;;;;;;;10.17;43.51;98473.83;220260;1271;23509;-70
2022/02/24 15:35:09;;;;;;;5.10;3.00;;;;;;;9.94;44.08;98470.98;220396;1273;26404;-70
2022/02/24 15:40:34;;;;;;;4.20;2.30;;;;;;;9.69;45.12;98473.11;219140;1273;24810;-71
2022/02/24 15:45:46;;;;;;;5.80;2.50;;;;;;;9.46;45.13;98473.10;219602;1274;24166;-71
2022/02/24 15:51:03;;;;;;;5.90;2.50;;;;;;;9.26;45.28;98477.48;219290;1273;25395;-70
2022/02/24 15:56:06;;;;;;;7.70;2.60;;;;;;;9.04;45.72;98459.67;219398;1274;25115;-71
2022/02/24 16:01:53;;;;;;;4.00;2.30;;;;;;;8.82;45.92;98443.00;219925;1273;25327;-70
2022/02/24 16:06:59;;;;;;;5.80;2.90;;;;;;;8.66;46.15;98443.28;220020;1274;22589;-71
2022/02/24 16:13:08;;;;;;;8.70;3.10;;;;;;;8.49;46.53;98450.07;220156;1273;25287;-71
2022/02/24 16:18:14;;;;;;;8.30;3.60;;;;;;;8.31;46.78;98443.54;220245;1274;25328;-70
2022/02/24 16:23:20;;;;;;;7.70;3.40;;;;;;;8.13;47.30;98428.70;220047;1274;25389;-71
2022/02/24 16:28:22;;;;;;;8.50;3.80;;;;;;;7.96;47.83;98426.45;220079;1273;22594;-70
2022/02/24 16:33:35;;;;;;;8.30;3.60;;;;;;;7.78;48.15;98422.20;219200;1273;22545;-70
2022/02/24 16:39:05;;;;;;;9.50;4.20;;;;;;;7.67;48.22;98430.12;220049;1273;24974;-71
2022/02/24 16:44:48;;;;;;;10.10;4.10;;;;;;;7.56;48.50;98432.70;219927;1274;22621;-70
2022/02/24 16:49:51;;;;;;;9.40;4.70;;;;;;;7.46;48.70;98429.52;219456;1274;26451;-70
2022/02/24 16:54:58;;;;;;;11.70;5.50;;;;;;;7.33;49.44;98425.27;219293;1274;24123;-71
2022/02/24 17:00:05;;;;;;;12.80;5.50;;;;;;;7.20;49.61;98422.83;219462;1271;25432;-71
2022/02/24 17:05:17;;;;;;;18.90;6.90;;;;;;;7.07;49.86;98414.59;220123;1273;22531;-71
2022/02/24 17:10:26;;;;;;;22.40;9.90;;;;;;;6.94;50.26;98410.39;219294;1272;25347;-71
2022/02/24 17:15:32;;;;;;;27.30;11.90;;;;;;;6.83;50.49;98408.73;219865;1274;22667;-70
2022/02/24 17:20:42;;;;;;;31.50;14.70;;;;;;;6.77;50.98;98404.39;219521;1274;25415;-72
2022/02/24 17:26:17;;;;;;;28.10;11.50;;;;;;;6.66;51.00;98410.02;220125;1274;24248;-71
2022/02/24 17:31:35;;;;;;;24.90;10.50;;;;;;;6.57;51.45;98406.27;220447;1273;22782;-70
2022/02/24 17:36:51;;;;;;;24.20;10.80;;;;;;;6.46;51.39;98407.41;219989;1273;22625;-70
2022/02/24 17:42:15;;;;;;;17.80;9.10;;;;;;;6.35;51.66;98401.89;219141;1273;22605;-70
2022/02/24 17:47:39;;;;;;;22.30;8.90;;;;;;;6.27;51.97;98391.38;220082;1273;25383;-71
2022/02/24 17:53:04;;;;;;;21.70;10.80;;;;;;;6.15;52.71;98390.81;219820;1274;22675;-70
2022/02/24 17:58:25;;;;;;;27.30;12.60;;;;;;;6.06;52.90;98393.02;220643;1274;22572;-71
2022/02/24 18:03:39;;;;;;;25.30;12.20;;;;;;;5.95;52.92;98393.84;219988;1274;22535;-71
2022/02/24 18:08:44;;;;;;;25.00;10.70;;;;;;;5.77;53.13;98395.17;220731;1273;24769;-71
2022/02/24 18:13:50;;;;;;;23.90;11.50;;;;;;;5.57;53.19;98393.40;220600;1273;22577;-71
2022/02/24 18:19:02;;;;;;;23.80;11.70;;;;;;;5.36;53.59;98388.71;220297;1273;23810;-70
2022/02/24 18:24:05;;;;;;;23.20;11.10;;;;;;;5.25;54.13;98383.70;219377;1271;22726;-70
2022/02/24 18:29:11;;;;;;;22.00;8.10;;;;;;;5.21;54.66;98388.03;219836;1271;22680;-70
2022/02/24 18:34:25;;;;;;;18.30;8.20;;;;;;;5.26;55.16;98382.10;220511;1271;25309;-70
2022/02/24 18:39:43;;;;;;;;;;;;;;;;;;;;;
2022/02/24 18:44:55;;;;;;;15.60;7.60;;;;;;;5.48;55.36;98382.81;220559;1271;22726;-70
2022/02/24 18:50:02;;;;;;;16.50;8.10;;;;;;;5.57;55.04;98391.80;220617;1271;22614;-70
2022/02/24 18:55:47;;;;;;;16.70;7.90;;;;;;;5.63;55.04;98390.59;220294;1273;22624;-70
2022/02/24 19:01:05;;;;;;;20.60;8.40;;;;;;;5.67;54.98;98394.58;219669;1273;22575;-70
2022/02/24 19:06:30;;;;;;;16.20;7.90;;;;;;;5.64;54.82;98400.16;219553;1272;22771;-73
2022/02/24 19:11:41;;;;;;;19.40;9.80;;;;;;;5.55;55.23;98403.08;220614;1273;24918;-69
2022/02/24 19:17:11;;;;;;;;;;;;;;;;;;;;;
2022/02/24 19:22:17;;;;;;;72.70;39.40;;;;;;;5.37;55.17;98392.27;218950;1274;403959;-71
2022/02/24 19:33:26;;;;;;;24.30;13.10;;;;;;;5.28;55.75;98384.34;219700;1273;25104;-70
2022/02/24 19:38:37;;;;;;;24.20;11.70;;;;;;;5.20;55.73;98374.55;220625;1271;23389;-70
2022/02/24 19:43:43;;;;;;;23.10;11.90;;;;;;;5.13;56.29;98369.47;219736;1273;25290;-70
2022/02/24 19:49:05;;;;;;;23.00;11.30;;;;;;;5.09;56.44;98363.85;220553;1273;24719;-70
2022/02/24 19:54:31;;;;;;;21.00;10.20;;;;;;;5.07;56.59;98356.89;220604;1273;22544;-70
2022/02/24 19:59:45;;;;;;;23.90;10.50;;;;;;;5.05;56.84;98361.55;220316;1271;22544;-71
2022/02/24 20:05:01;;;;;;;25.90;11.50;;;;;;;5.08;56.89;98364.27;220315;1273;22556;-69
2022/02/24 20:10:26;;;;;;;26.10;11.40;;;;;;;5.11;56.57;98366.44;219725;1271;22547;-71
2022/02/24 20:15:29;;;;;;;21.60;10.90;;;;;;;5.11;56.87;98370.00;220210;1271;24314;-70
2022/02/24 20:21:08;;;;;;;24.30;10.70;;;;;;;5.08;56.75;98364.21;220604;1271;22597;-70
2022/02/24 20:27:15;;;;;;;18.80;8.80;;;;;;;5.01;56.99;98365.73;220445;1273;25326;-71
2022/02/24 20:33:08;;;;;;;18.50;9.50;;;;;;;5.05;57.11;98360.70;219518;1273;22563;-70
2022/02/24 20:38:26;;;;;;;20.30;9.60;;;;;;;5.09;57.07;98364.64;220597;1271;22567;-70
2022/02/24 20:43:56;;;;;;;19.70;9.30;;;;;;;5.10;57.03;98364.48;220368;1274;24228;-70
2022/02/24 20:49:02;;;;;;;27.00;12.20;;;;;;;5.07;57.15;98367.13;219579;1273;24252;-71
2022/02/24 20:54:34;;;;;;;28.60;13.40;;;;;;;4.98;57.28;98356.75;220320;1271;25408;-71
2022/02/24 20:59:48;;;;;;;33.70;14.60;;;;;;;4.88;57.15;98354.23;220476;1271;22489;-71
2022/02/24 21:05:41;;;;;;;41.60;18.30;;;;;;;4.80;57.54;98347.41;219947;1273;26403;-70
2022/02/24 21:10:55;;;;;;;42.30;18.10;;;;;;;4.76;57.57;98343.38;219431;1273;24719;-70
2022/02/24 21:16:28;;;;;;;;;;;;;;;;;;;;;
2022/02/24 21:22:12;;;;;;;35.50;16.70;;;;;;;4.69;57.82;98348.28;220711;1272;25249;-71
2022/02/24 21:27:52;;;;;;;;;;;;;;;;;;;;;
2022/02/24 21:33:47;;;;;;;43.10;19.30;;;;;;;4.62;57.99;98334.35;219747;1273;24356;-69
2022/02/24 21:39:16;;;;;;;38.00;17.60;;;;;;;4.57;58.06;98323.08;219371;1273;22697;-70
2022/02/24 21:44:37;;;;;;;37.80;15.90;;;;;;;4.52;58.14;98317.98;220358;1273;24233;-70
2022/02/24 21:49:44;;;;;;;38.80;15.60;;;;;;;4.52;58.25;98312.45;219575;1273;22600;-69
2022/02/24 21:54:49;;;;;;;37.80;17.50;;;;;;;4.52;58.40;98316.07;219389;1273;22566;-70
2022/02/24 22:00:07;;;;;;;;;;;;;;;;;;;;;
2022/02/24 22:05:15;;;;;;;45.70;19.00;;;;;;;4.51;58.55;98318.98;220494;1272;25889;-71
2022/02/24 22:10:55;;;;;;;47.80;20.40;;;;;;;4.46;58.52;98319.59;220443;1272;23504;-71
2022/02/24 22:16:11;;;;;;;53.60;19.70;;;;;;;4.40;58.60;98321.90;220497;1273;24241;-70
2022/02/24 22:21:41;;;;;;;47.80;20.10;;;;;;;4.37;58.82;98317.55;220569;1273;25503;-70
2022/02/24 22:32:19;;;;;;;44.00;19.10;;;;;;;4.36;59.08;98299.29;220618;1273;23339;-71
2022/02/24 22:37:42;;;;;;;37.50;16.80;;;;;;;4.38;59.04;98293.25;219750;1272;23978;-70
2022/02/24 22:43:06;;;;;;;36.10;15.30;;;;;;;4.42;59.06;98282.81;219215;1274;24161;-69
2022/02/24 22:48:33;;;;;;;30.60;13.60;;;;;;;4.50;59.14;98268.84;219225;1274;22589;-70
2022/02/24 22:54:38;;;;;;;26.10;11.20;;;;;;;4.59;58.92;98263.14;219225;1273;24238;-70
2022/02/24 23:00:41;;;;;;;22.00;10.30;;;;;;;4.70;58.90;98256.20;219331;1273;22688;-70
2022/02/24 23:06:05;;;;;;;24.30;10.30;;;;;;;4.79;58.85;98246.14;220744;1273;25380;-70
2022/02/24 23:11:09;;;;;;;20.70;9.10;;;;;;;4.85;58.69;98243.81;220312;1273;22637;-70
2022/02/24 23:17:03;;;;;;;22.80;9.20;;;;;;;4.92;58.49;98247.38;219826;1273;22555;-71
2022/02/24 23:22:38;;;;;;;13.70;6.50;;;;;;;4.97;58.35;98252.27;220397;1272;24255;-70
2022/02/24 23:28:30;;;;;;;;;;;;;;;;;;;;;
2022/02/24 23:34:09;;;;;;;8.80;4.40;;;;;;;5.15;57.73;98247.71;219311;1271;25087;-71
2022/02/24 23:39:25;;;;;;;11.20;3.10;;;;;;;5.26;57.49;98244.73;220035;1274;22721;-71
2022/02/24 23:51:15;;;;;;;6.20;2.80;;;;;;;5.54;56.96;98241.63;219576;1271;25502;-70
2022/02/24 23:56:38;;;;;;;4.90;3.10;;;;;;;5.69;56.58;98249.38;219438;1272;22563;-70
